createdAt,value
2019-01-21T00:00:42.685Z,71.73
2019-01-21T00:03:14.653Z,70.06
2019-01-21T00:05:42.126Z,69.31
2019-01-21T00:08:11.748Z,69.65
2019-01-21T00:10:40.341Z,70.43
2019-01-21T00:13:08.843Z,71.07
2019-01-21T00:15:37.462Z,69.59
2019-01-21T00:18:06.110Z,69.42
2019-01-21T00:20:34.737Z,69.41
2019-01-21T00:23:04.965Z,69.03
2019-01-21T00:25:33.612Z,70.36
2019-01-21T00:28:02.195Z,69.99
2019-01-21T00:30:30.818Z,69.51
2019-01-21T00:32:59.437Z,69.72
2019-01-21T00:35:28.005Z,70.44
2019-01-21T00:37:56.607Z,71.44
2019-01-21T00:40:25.252Z,71.03
2019-01-21T00:42:53.771Z,70.73
2019-01-21T00:45:22.392Z,69.80
2019-01-21T00:47:50.978Z,70.56
2019-01-21T00:50:19.583Z,71.07
2019-01-21T00:52:48.187Z,70.91
2019-01-21T00:55:16.796Z,71.98
2019-01-21T00:57:45.375Z,71.62
2019-01-21T01:00:17.085Z,71.03
2019-01-21T01:02:45.677Z,70.45
2019-01-21T01:05:14.486Z,71.79
2019-01-21T01:07:43.552Z,71.12
2019-01-21T01:10:13.511Z,71.02
2019-01-21T01:12:42.579Z,71.02
2019-01-21T01:15:13.179Z,71.27
2019-01-21T01:17:42.704Z,70.29
2019-01-21T01:20:19.270Z,70.51
2019-01-21T01:22:47.947Z,70.58
2019-01-21T01:25:16.553Z,70.72
2019-01-21T01:27:45.178Z,70.43
2019-01-21T01:30:15.868Z,69.66
2019-01-21T01:32:44.483Z,71.02
2019-01-21T01:35:14.682Z,70.96
2019-01-21T01:37:43.702Z,70.13
2019-01-21T01:40:15.122Z,70.13
2019-01-21T01:42:43.828Z,70.04
2019-01-21T01:45:21.312Z,70.91
2019-01-21T01:47:53.225Z,70.48
2019-01-21T01:50:21.821Z,69.81
2019-01-21T01:52:50.367Z,71.75
2019-01-21T01:55:20.429Z,70.40
2019-01-21T01:57:49.742Z,70.11
2019-01-21T02:00:18.544Z,71.43
2019-01-21T02:02:47.141Z,71.32
2019-01-21T02:05:15.788Z,70.75
2019-01-21T02:07:44.308Z,72.33
2019-01-21T02:10:14.782Z,72.33
2019-01-21T02:12:43.535Z,72.01
2019-01-21T02:15:16.592Z,71.78
2019-01-21T02:17:51.824Z,70.94
2019-01-21T02:20:17.323Z,71.56
2019-01-21T02:22:48.352Z,71.53
2019-01-21T02:25:17.357Z,73.01
2019-01-21T02:28:14.183Z,72.44
2019-01-21T02:31:01.640Z,71.48
2019-01-21T02:34:07.572Z,71.27
2019-01-21T02:36:47.812Z,72.12
2019-01-21T02:39:19.428Z,71.60
2019-01-21T02:41:48.126Z,70.81
2019-01-21T02:44:27.744Z,72.05
2019-01-21T02:47:10.984Z,70.70
2019-01-21T02:50:00.020Z,69.97
2019-01-21T02:52:50.582Z,70.89
2019-01-21T02:55:22.062Z,70.61
2019-01-21T02:58:09.971Z,71.13
2019-01-21T03:01:08.469Z,70.64
2019-01-21T03:03:39.988Z,70.44
2019-01-21T03:06:26.443Z,71.67
2019-01-21T03:09:09.595Z,70.10
2019-01-21T03:11:43.862Z,71.52
2019-01-21T03:14:18.029Z,71.39
2019-01-21T03:17:11.710Z,71.45
2019-01-21T03:19:55.231Z,71.02
2019-01-21T03:22:43.384Z,71.86
2019-01-21T03:25:17.475Z,71.28
2019-01-21T03:28:14.537Z,70.91
2019-01-21T03:31:02.185Z,70.49
2019-01-21T03:33:49.567Z,70.17
2019-01-21T03:36:24.021Z,70.37
2019-01-21T03:39:01.265Z,69.91
2019-01-21T03:41:38.289Z,71.31
2019-01-21T03:44:21.724Z,70.12
2019-01-21T03:46:53.409Z,69.91
2019-01-21T03:49:30.821Z,70.24
2019-01-21T03:52:19.583Z,69.94
2019-01-21T03:54:49.537Z,69.92
2019-01-21T03:57:21.060Z,69.46
2019-01-21T04:00:08.620Z,70.23
2019-01-21T04:02:49.089Z,71.06
2019-01-21T04:05:26.499Z,70.82
2019-01-21T04:08:09.648Z,70.79
2019-01-21T04:10:52.947Z,69.51
2019-01-21T04:13:24.471Z,69.93
2019-01-21T04:16:16.984Z,72.60
2019-01-21T04:19:10.120Z,72.60
2019-01-21T04:21:44.333Z,70.95
2019-01-21T04:24:18.944Z,71.67
2019-01-21T04:26:56.265Z,71.06
2019-01-21T04:30:00.428Z,71.06
2019-01-21T04:32:53.159Z,70.59
2019-01-21T04:35:33.546Z,70.57
2019-01-21T04:38:34.902Z,70.64
2019-01-21T04:41:06.391Z,71.36
2019-01-21T04:43:49.920Z,71.04
2019-01-21T04:46:21.457Z,70.69
2019-01-21T04:48:56.060Z,70.35
2019-01-21T04:51:27.784Z,69.83
2019-01-21T04:54:21.907Z,71.50
2019-01-21T04:57:05.212Z,70.92
2019-01-21T05:00:03.350Z,70.64
2019-01-21T05:03:00.276Z,71.32
2019-01-21T05:05:34.780Z,71.88
2019-01-21T05:08:09.248Z,71.95
2019-01-21T05:10:49.848Z,71.84
2019-01-21T05:13:46.447Z,70.39
2019-01-21T05:16:52.648Z,69.90
2019-01-21T05:19:27.099Z,71.12
2019-01-21T05:22:21.176Z,70.84
2019-01-21T05:25:04.661Z,70.31
2019-01-21T05:27:48.152Z,71.09
2019-01-21T05:30:31.337Z,70.54
2019-01-21T05:33:14.762Z,70.83
2019-01-21T05:36:19.340Z,71.22
2019-01-21T05:38:56.018Z,70.94
2019-01-21T05:41:42.694Z,72.50
2019-01-21T05:44:23.027Z,72.09
2019-01-21T05:47:06.539Z,70.94
2019-01-21T05:50:11.089Z,70.34
2019-01-21T05:53:16.879Z,69.90
2019-01-21T05:56:04.762Z,69.37
2019-01-21T05:58:45.224Z,70.79
2019-01-21T06:01:36.116Z,69.74
2019-01-21T06:04:13.432Z,70.78
2019-01-21T06:06:47.931Z,70.78
2019-01-21T06:09:22.871Z,69.62
2019-01-21T06:12:06.098Z,69.61
2019-01-21T06:14:46.706Z,69.83
2019-01-21T06:17:21.037Z,71.95
2019-01-21T06:20:25.438Z,71.31
2019-01-21T06:23:14.921Z,69.82
2019-01-21T06:25:55.366Z,71.86
2019-01-21T06:28:41.792Z,72.20
2019-01-21T06:31:16.171Z,72.25
2019-01-21T06:34:20.771Z,72.63
2019-01-21T06:36:52.303Z,72.83
2019-01-21T06:39:49.111Z,71.18
2019-01-21T06:42:29.256Z,72.20
2019-01-21T06:45:03.398Z,72.57
2019-01-21T06:48:07.696Z,71.96
2019-01-21T06:50:51.035Z,72.21
2019-01-21T06:53:28.531Z,72.37
2019-01-21T06:56:14.816Z,71.83
2019-01-21T06:58:52.200Z,70.16
2019-01-21T07:01:23.697Z,69.95
2019-01-21T07:04:28.167Z,70.39
2019-01-21T07:07:17.655Z,70.39
2019-01-21T07:10:01.097Z,70.78
2019-01-21T07:12:38.317Z,70.45
2019-01-21T07:15:15.786Z,70.88
2019-01-21T07:18:20.225Z,72.33
2019-01-21T07:20:51.721Z,72.00
2019-01-21T07:23:32.001Z,71.38
2019-01-21T07:26:09.289Z,70.62
2019-01-21T07:29:01.770Z,71.54
2019-01-21T07:31:36.004Z,70.88
2019-01-21T07:34:16.430Z,72.81
2019-01-21T07:37:05.893Z,71.36
2019-01-21T07:39:49.333Z,71.61
2019-01-21T07:42:30.201Z,72.49
2019-01-21T07:45:13.707Z,72.08
2019-01-21T07:47:47.901Z,73.09
2019-01-21T07:50:22.361Z,72.24
2019-01-21T07:53:13.257Z,71.82
2019-01-21T07:56:01.341Z,71.74
2019-01-21T07:58:52.346Z,71.49
2019-01-21T08:01:29.484Z,71.34
2019-01-21T08:04:20.557Z,71.27
2019-01-21T08:07:14.061Z,71.74
2019-01-21T08:09:57.591Z,71.19
2019-01-21T08:12:40.780Z,70.81
2019-01-21T08:15:14.932Z,70.94
2019-01-21T08:18:03.976Z,74.00
2019-01-21T08:20:44.256Z,73.06
2019-01-21T08:23:18.447Z,70.25
2019-01-21T08:26:05.082Z,69.34
2019-01-21T08:28:48.274Z,68.83
2019-01-21T08:31:25.791Z,69.94
2019-01-21T08:34:21.014Z,70.87
2019-01-21T08:37:01.148Z,70.29
2019-01-21T08:39:50.604Z,72.70
2019-01-21T08:42:51.916Z,71.94
2019-01-21T08:45:41.280Z,71.58
2019-01-21T08:48:21.371Z,70.93
2019-01-21T08:50:58.760Z,70.55
2019-01-21T08:53:42.227Z,71.98
2019-01-21T08:56:19.015Z,76.61
2019-01-21T08:58:59.134Z,70.67
2019-01-21T09:02:02.045Z,65.82
2019-01-21T09:04:48.217Z,63.34
2019-01-21T09:07:19.772Z,63.72
2019-01-21T09:09:56.895Z,66.75
2019-01-21T09:12:37.003Z,68.68
2019-01-21T09:15:14.066Z,68.92
2019-01-21T09:17:54.257Z,69.34
2019-01-21T09:20:37.797Z,69.98
2019-01-21T09:23:23.995Z,68.08
2019-01-21T09:26:10.726Z,68.34
2019-01-21T09:28:50.893Z,69.19
2019-01-21T09:31:45.479Z,70.70
2019-01-21T09:34:28.960Z,68.88
2019-01-21T09:37:21.491Z,67.73
2019-01-21T09:40:15.835Z,67.98
2019-01-21T09:43:02.016Z,67.66
2019-01-21T09:45:51.231Z,67.27
2019-01-21T09:48:18.931Z,68.51
2019-01-21T09:50:47.561Z,68.66
2019-01-21T09:53:16.187Z,68.58
2019-01-21T09:55:47.736Z,68.30
2019-01-21T09:58:16.667Z,68.97
2019-01-21T10:00:45.307Z,68.01
2019-01-21T10:03:14.001Z,68.49
2019-01-21T10:05:45.554Z,67.37
2019-01-21T10:08:19.834Z,70.75
2019-01-21T10:11:09.441Z,68.27
2019-01-21T10:13:56.238Z,67.18
2019-01-21T10:16:33.796Z,66.46
2019-01-21T10:19:24.833Z,65.62
2019-01-21T10:22:11.051Z,67.07
2019-01-21T10:25:14.103Z,66.86
2019-01-21T10:28:14.026Z,67.13
2019-01-21T10:30:51.430Z,68.25
2019-01-21T10:33:47.579Z,66.60
2019-01-21T10:36:31.006Z,66.73
2019-01-21T10:39:20.202Z,66.98
2019-01-21T10:41:54.673Z,67.08
2019-01-21T10:44:37.676Z,69.90
2019-01-21T10:47:27.027Z,65.27
2019-01-21T10:50:20.702Z,64.45
2019-01-21T10:52:54.781Z,64.57
2019-01-21T10:55:40.990Z,64.58
2019-01-21T10:58:27.436Z,64.40
2019-01-21T11:01:13.604Z,65.52
2019-01-21T11:04:07.393Z,65.31
2019-01-21T11:06:58.049Z,64.64
2019-01-21T11:09:53.326Z,64.64
2019-01-21T11:12:24.865Z,63.70
2019-01-21T11:15:02.032Z,64.45
2019-01-21T11:17:39.140Z,65.50
2019-01-21T11:20:19.591Z,67.97
2019-01-21T11:23:00.145Z,65.16
2019-01-21T11:25:58.567Z,62.94
2019-01-21T11:28:30.091Z,62.38
2019-01-21T11:31:16.486Z,62.33
2019-01-21T11:34:02.993Z,61.89
2019-01-21T11:36:34.486Z,62.52
2019-01-21T11:39:18.531Z,63.22
2019-01-21T11:42:02.168Z,62.50
2019-01-21T11:44:48.773Z,62.23
2019-01-21T11:47:23.020Z,62.00
2019-01-21T11:50:00.554Z,61.69
2019-01-21T11:52:37.790Z,62.24
2019-01-21T11:55:29.568Z,63.72
2019-01-21T11:58:23.242Z,61.96
2019-01-21T12:01:17.333Z,61.12
2019-01-21T12:04:09.492Z,61.43
2019-01-21T12:06:41.020Z,61.03
2019-01-21T12:09:15.415Z,60.66
2019-01-21T12:11:46.946Z,60.26
2019-01-21T12:14:18.433Z,60.22
2019-01-21T12:17:16.664Z,61.14
2019-01-21T12:19:54.114Z,62.11
2019-01-21T12:22:45.001Z,61.09
2019-01-21T12:25:28.185Z,61.01
2019-01-21T12:28:02.307Z,61.76
2019-01-21T12:30:50.090Z,64.62
2019-01-21T12:33:48.610Z,63.48
2019-01-21T12:36:20.145Z,60.64
2019-01-21T12:39:04.047Z,59.38
2019-01-21T12:41:50.270Z,60.21
2019-01-21T12:44:38.248Z,60.28
2019-01-21T12:47:30.632Z,61.03
2019-01-21T12:50:33.539Z,60.52
2019-01-21T12:53:07.600Z,60.22
2019-01-21T12:55:50.713Z,59.86
2019-01-21T12:58:22.209Z,60.76
2019-01-21T13:00:56.343Z,60.60
2019-01-21T13:03:51.830Z,61.32
2019-01-21T13:06:42.864Z,62.46
2019-01-21T13:09:17.260Z,64.26
2019-01-21T13:11:54.367Z,61.50
2019-01-21T13:14:40.726Z,59.65
2019-01-21T13:17:12.210Z,59.71
2019-01-21T13:20:00.342Z,59.68
2019-01-21T13:22:43.496Z,60.49
2019-01-21T13:25:20.846Z,59.36
2019-01-21T13:28:10.631Z,59.69
2019-01-21T13:31:12.368Z,62.10
2019-01-21T13:33:55.805Z,60.95
2019-01-21T13:36:51.294Z,61.18
2019-01-21T13:39:43.864Z,61.28
2019-01-21T13:42:15.399Z,61.74
2019-01-21T13:45:03.075Z,64.25
2019-01-21T13:47:53.688Z,61.12
2019-01-21T13:50:43.330Z,59.98
2019-01-21T13:53:47.900Z,59.59
2019-01-21T13:56:36.880Z,60.62
2019-01-21T13:59:26.431Z,61.25
2019-01-21T14:02:09.758Z,61.04
2019-01-21T14:04:41.253Z,59.61
2019-01-21T14:07:21.734Z,60.05
2019-01-21T14:10:07.858Z,60.25
2019-01-21T14:12:42.105Z,61.25
2019-01-21T14:15:49.791Z,60.58
2019-01-21T14:18:27.330Z,60.45
2019-01-21T14:21:04.471Z,63.71
2019-01-21T14:23:47.660Z,60.81
2019-01-21T14:26:24.786Z,60.50
2019-01-21T14:29:08.659Z,59.16
2019-01-21T14:31:42.990Z,58.65
2019-01-21T14:34:17.475Z,57.23
2019-01-21T14:37:00.870Z,58.49
2019-01-21T14:39:32.477Z,59.06
2019-01-21T14:42:06.908Z,59.35
2019-01-21T14:44:57.838Z,58.28
2019-01-21T14:47:32.042Z,58.55
2019-01-21T14:50:21.384Z,59.86
2019-01-21T14:52:58.690Z,60.58
2019-01-21T14:56:03.104Z,62.14
2019-01-21T14:58:46.350Z,62.32
2019-01-21T15:01:20.766Z,59.36
2019-01-21T15:03:52.333Z,58.82
2019-01-21T15:06:32.766Z,59.08
2019-01-21T15:09:19.341Z,59.97
2019-01-21T15:11:59.439Z,58.50
2019-01-21T15:14:59.639Z,58.50
2019-01-21T15:17:39.961Z,59.99
2019-01-21T15:20:11.534Z,60.05
2019-01-21T15:22:51.483Z,59.56
2019-01-21T15:25:25.948Z,59.29
2019-01-21T15:28:12.349Z,61.41
2019-01-21T15:31:04.601Z,62.98
2019-01-21T15:33:55.455Z,63.19
2019-01-21T15:36:47.269Z,60.86
2019-01-21T15:39:24.875Z,60.74
2019-01-21T15:42:29.261Z,59.50
2019-01-21T15:45:15.101Z,60.60
2019-01-21T15:47:49.423Z,60.45
2019-01-21T15:50:27.033Z,60.71
2019-01-21T15:53:01.497Z,60.78
2019-01-21T15:55:38.881Z,60.91
2019-01-21T15:58:18.943Z,62.13
2019-01-21T16:01:13.292Z,61.55
2019-01-21T16:03:53.807Z,62.23
2019-01-21T16:06:34.331Z,63.26
2019-01-21T16:09:25.420Z,67.84
2019-01-21T16:11:56.918Z,63.44
2019-01-21T16:14:28.425Z,62.57
2019-01-21T16:17:23.924Z,61.23
2019-01-21T16:19:52.650Z,61.61
2019-01-21T16:22:51.155Z,62.97
2019-01-21T16:25:25.553Z,62.49
2019-01-21T16:28:11.931Z,63.39
2019-01-21T16:31:01.497Z,63.62
2019-01-21T16:33:47.655Z,63.79
2019-01-21T16:36:21.715Z,64.15
2019-01-21T16:38:53.554Z,64.72
2019-01-21T16:41:27.796Z,64.42
2019-01-21T16:43:56.309Z,68.26
2019-01-21T16:46:25.876Z,66.77
2019-01-21T16:48:54.431Z,63.69
2019-01-21T16:51:23.058Z,62.78
2019-01-21T16:53:51.756Z,62.86
2019-01-21T16:56:20.395Z,63.86
2019-01-21T16:58:48.934Z,63.84
2019-01-21T17:01:17.526Z,64.67
2019-01-21T17:03:46.324Z,65.59
2019-01-21T17:06:14.935Z,66.47
2019-01-21T17:08:43.567Z,67.10
2019-01-21T17:11:12.194Z,66.57
2019-01-21T17:13:40.834Z,66.50
2019-01-21T17:16:09.479Z,66.34
2019-01-21T17:18:38.073Z,67.83
2019-01-21T17:21:06.635Z,72.82
2019-01-21T17:23:35.284Z,67.28
2019-01-21T17:26:03.870Z,65.18
2019-01-21T17:28:32.501Z,64.89
2019-01-21T17:31:01.170Z,64.69
2019-01-21T17:33:29.605Z,65.22
2019-01-21T17:35:58.234Z,65.78
2019-01-21T17:38:26.881Z,66.53
2019-01-21T17:40:55.590Z,66.79
2019-01-21T17:43:24.186Z,66.75
2019-01-21T17:45:52.758Z,67.51
2019-01-21T17:48:21.342Z,66.89
2019-01-21T17:50:49.963Z,66.80
2019-01-21T17:53:18.591Z,67.36
2019-01-21T17:55:47.129Z,69.25
2019-01-21T17:58:15.652Z,66.53
2019-01-21T18:00:44.256Z,66.53
2019-01-21T18:03:12.873Z,65.75
2019-01-21T18:05:41.505Z,65.27
2019-01-21T18:08:10.099Z,65.75
2019-01-21T18:10:38.734Z,65.91
2019-01-21T18:13:07.265Z,67.41
2019-01-21T18:15:35.860Z,67.26
2019-01-21T18:18:04.691Z,67.99
2019-01-21T18:20:33.202Z,68.79
2019-01-21T18:23:01.851Z,67.96
2019-01-21T18:25:30.441Z,67.68
2019-01-21T18:27:59.069Z,67.55
2019-01-21T18:30:28.079Z,67.18
2019-01-21T18:32:57.555Z,70.92
2019-01-21T18:35:26.146Z,68.97
2019-01-21T18:37:54.942Z,66.14
2019-01-21T18:40:23.547Z,65.85
2019-01-21T18:42:52.175Z,66.73
2019-01-21T18:45:25.604Z,65.54
2019-01-21T18:47:54.267Z,67.21
2019-01-21T18:50:22.878Z,67.89
2019-01-21T18:52:51.838Z,67.52
2019-01-21T18:55:20.418Z,68.61
2019-01-21T18:57:49.062Z,68.66
2019-01-21T19:00:22.924Z,68.13
2019-01-21T19:02:51.514Z,68.21
2019-01-21T19:05:20.132Z,68.90
2019-01-21T19:07:48.819Z,70.24
2019-01-21T19:10:19.283Z,71.52
2019-01-21T19:12:47.832Z,68.14
2019-01-21T19:15:19.063Z,66.06
2019-01-21T19:17:48.002Z,66.25
2019-01-21T19:20:16.901Z,66.36
2019-01-21T19:22:45.491Z,66.75
2019-01-21T19:25:14.132Z,67.97
2019-01-21T19:27:42.706Z,68.72
2019-01-21T19:30:14.211Z,69.52
2019-01-21T19:32:42.815Z,69.25
2019-01-21T19:35:14.451Z,68.88
2019-01-21T19:37:43.079Z,68.71
2019-01-21T19:40:15.090Z,68.07
2019-01-21T19:42:43.808Z,67.57
2019-01-21T19:45:12.894Z,71.92
2019-01-21T19:47:41.515Z,71.63
2019-01-21T19:50:21.438Z,67.15
2019-01-21T19:52:49.985Z,66.70
2019-01-21T19:55:24.258Z,66.70
2019-01-21T19:57:52.894Z,67.53
2019-01-21T20:00:24.986Z,68.33
2019-01-21T20:02:53.731Z,69.65
2019-01-21T20:05:22.363Z,69.94
2019-01-21T20:07:50.942Z,70.10
2019-01-21T20:10:21.395Z,69.51
2019-01-21T20:12:50.166Z,69.13
2019-01-21T20:15:19.303Z,69.35
2019-01-21T20:17:48.082Z,69.40
2019-01-21T20:20:19.603Z,70.24
2019-01-21T20:22:48.236Z,78.18
2019-01-21T20:25:16.828Z,70.42
2019-01-21T20:27:45.497Z,67.62
2019-01-21T20:30:22.261Z,67.46
2019-01-21T20:32:50.883Z,68.01
2019-01-21T20:35:19.617Z,69.45
2019-01-21T20:37:48.279Z,70.28
2019-01-21T20:40:22.099Z,70.51
2019-01-21T20:42:50.640Z,72.02
2019-01-21T20:45:19.247Z,70.92
2019-01-21T20:47:47.855Z,70.01
2019-01-21T20:50:19.025Z,70.04
2019-01-21T20:52:47.616Z,69.75
2019-01-21T20:55:17.161Z,68.03
2019-01-21T20:57:45.719Z,70.22
2019-01-21T21:00:19.754Z,72.91
2019-01-21T21:02:51.984Z,68.11
2019-01-21T21:05:20.633Z,66.92
2019-01-21T21:07:49.227Z,67.25
2019-01-21T21:10:17.931Z,68.09
2019-01-21T21:12:46.559Z,69.26
2019-01-21T21:15:26.855Z,70.65
2019-01-21T21:17:55.404Z,71.20
2019-01-21T21:20:23.926Z,71.45
2019-01-21T21:22:52.500Z,70.70
2019-01-21T21:25:21.273Z,70.24
2019-01-21T21:27:49.718Z,69.62
2019-01-21T21:30:26.640Z,68.52
2019-01-21T21:32:55.166Z,69.76
2019-01-21T21:35:24.068Z,73.32
2019-01-21T21:37:52.516Z,70.23
2019-01-21T21:40:22.477Z,67.73
2019-01-21T21:42:51.011Z,67.62
2019-01-21T21:45:21.154Z,68.04
2019-01-21T21:47:50.009Z,68.17
2019-01-21T21:50:20.922Z,69.64
2019-01-21T21:52:49.460Z,70.13
2019-01-21T21:55:18.079Z,70.91
2019-01-21T21:57:46.742Z,70.60
2019-01-21T22:00:18.300Z,70.44
2019-01-21T22:02:46.792Z,70.03
2019-01-21T22:05:15.506Z,69.75
2019-01-21T22:07:44.112Z,69.04
2019-01-21T22:10:19.796Z,71.18
2019-01-21T22:12:48.064Z,71.84
2019-01-21T22:15:18.673Z,69.01
2019-01-21T22:17:47.207Z,67.56
2019-01-21T22:20:17.738Z,67.28
2019-01-21T22:22:46.369Z,67.83
2019-01-21T22:25:15.001Z,68.45
2019-01-21T22:27:43.583Z,69.23
2019-01-21T22:30:17.476Z,69.50
2019-01-21T22:32:46.042Z,70.02
2019-01-21T22:35:14.742Z,69.69
2019-01-21T22:37:43.440Z,69.65
2019-01-21T22:40:17.071Z,69.01
2019-01-21T22:42:45.676Z,68.05
2019-01-21T22:45:15.362Z,68.15
2019-01-21T22:47:43.983Z,77.87
2019-01-21T22:50:14.333Z,71.49
2019-01-21T22:52:42.922Z,68.72
2019-01-21T22:55:13.053Z,67.83
2019-01-21T22:57:41.631Z,67.38
2019-01-21T23:00:32.651Z,70.36
2019-01-21T23:03:01.523Z,70.76
2019-01-21T23:05:30.128Z,68.43
2019-01-21T23:07:58.744Z,70.48
2019-01-21T23:10:27.395Z,71.37
2019-01-21T23:12:56.378Z,69.24
2019-01-21T23:15:25.052Z,68.67
2019-01-21T23:17:53.669Z,71.27
2019-01-21T23:20:22.268Z,71.68
2019-01-21T23:22:50.856Z,69.27
2019-01-21T23:25:21.025Z,69.67
2019-01-21T23:27:49.623Z,71.66
2019-01-21T23:30:20.727Z,70.72
2019-01-21T23:32:49.314Z,70.26
2019-01-21T23:35:18.186Z,70.65
2019-01-21T23:37:46.864Z,69.89
2019-01-21T23:40:15.784Z,70.99
2019-01-21T23:42:44.394Z,69.80
2019-01-21T23:45:13.315Z,70.54
2019-01-21T23:47:41.899Z,70.67
2019-01-21T23:50:12.747Z,69.93
2019-01-21T23:52:41.622Z,69.81
2019-01-21T23:55:11.504Z,69.34
2019-01-21T23:57:40.144Z,68.95
